sensor_id;sensor_type;location;lat;lon;timestamp;P1;durP1;ratioP1;P2;durP2;ratioP2
2023;SDS011;1016;48.770;9.154;2022-08-19T00:02:03;29.97;;;14.33;;
2023;SDS011;1016;48.770;9.154;2022-08-19T00:04:30;28.20;;;13.43;;
2023;SDS011;1016;48.770;9.154;2022-08-19T00:06:59;31.13;;;14.10;;
2023;SDS011;1016;48.770;9.154;2022-08-19T00:09:25;29.63;;;14.50;;
2023;SDS011;1016;48.770;9.154;2022-08-19T00:11:52;28.77;;;14.20;;
2023;SDS011;1016;48.770;9.154;2022-08-19T00:14:20;28.57;;;14.10;;
2023;SDS011;1016;48.770;9.154;2022-08-19T00:16:47;33.47;;;14.27;;
2023;SDS011;1016;48.770;9.154;2022-08-19T00:19:14;31.30;;;13.70;;
2023;SDS011;1016;48.770;9.154;2022-08-19T00:21:40;27.60;;;13.90;;
2023;SDS011;1016;48.770;9.154;2022-08-19T00:24:09;27.93;;;13.97;;
2023;SDS011;1016;48.770;9.154;2022-08-19T00:26:37;28.47;;;14.47;;
2023;SDS011;1016;48.770;9.154;2022-08-19T00:29:04;28.80;;;14.30;;
2023;SDS011;1016;48.770;9.154;2022-08-19T00:31:31;29.53;;;14.20;;
2023;SDS011;1016;48.770;9.154;2022-08-19T00:33:57;28.13;;;14.60;;
2023;SDS011;1016;48.770;9.154;2022-08-19T00:36:22;31.27;;;15.20;;
2023;SDS011;1016;48.770;9.154;2022-08-19T00:38:48;30.20;;;13.70;;
2023;SDS011;1016;48.770;9.154;2022-08-19T00:41:15;30.20;;;14.23;;
2023;SDS011;1016;48.770;9.154;2022-08-19T00:43:43;28.57;;;14.50;;
2023;SDS011;1016;48.770;9.154;2022-08-19T00:46:20;28.97;;;13.63;;
2023;SDS011;1016;48.770;9.154;2022-08-19T00:48:46;30.13;;;14.30;;
2023;SDS011;1016;48.770;9.154;2022-08-19T00:51:11;29.47;;;14.43;;
2023;SDS011;1016;48.770;9.154;2022-08-19T00:53:37;31.30;;;14.10;;
2023;SDS011;1016;48.770;9.154;2022-08-19T00:56:04;28.30;;;14.50;;
2023;SDS011;1016;48.770;9.154;2022-08-19T00:58:32;29.20;;;14.40;;
2023;SDS011;1016;48.770;9.154;2022-08-19T01:00:59;29.80;;;15.47;;
2023;SDS011;1016;48.770;9.154;2022-08-19T01:03:26;29.27;;;14.30;;
2023;SDS011;1016;48.770;9.154;2022-08-19T01:05:52;29.57;;;15.50;;
2023;SDS011;1016;48.770;9.154;2022-08-19T01:08:19;28.47;;;14.40;;
2023;SDS011;1016;48.770;9.154;2022-08-19T01:10:47;28.00;;;14.20;;
2023;SDS011;1016;48.770;9.154;2022-08-19T01:13:21;31.43;;;15.50;;
2023;SDS011;1016;48.770;9.154;2022-08-19T01:15:55;28.60;;;14.50;;
2023;SDS011;1016;48.770;9.154;2022-08-19T01:18:24;28.30;;;14.83;;
2023;SDS011;1016;48.770;9.154;2022-08-19T01:20:52;30.37;;;14.73;;
2023;SDS011;1016;48.770;9.154;2022-08-19T01:23:21;26.97;;;14.80;;
2023;SDS011;1016;48.770;9.154;2022-08-19T01:25:47;29.10;;;14.43;;
2023;SDS011;1016;48.770;9.154;2022-08-19T01:28:19;28.73;;;14.20;;
2023;SDS011;1016;48.770;9.154;2022-08-19T01:30:47;30.00;;;14.87;;
2023;SDS011;1016;48.770;9.154;2022-08-19T01:33:13;29.87;;;14.80;;
2023;SDS011;1016;48.770;9.154;2022-08-19T01:35:39;30.57;;;15.17;;
2023;SDS011;1016;48.770;9.154;2022-08-19T01:38:08;30.30;;;15.50;;
2023;SDS011;1016;48.770;9.154;2022-08-19T01:40:43;28.33;;;15.30;;
2023;SDS011;1016;48.770;9.154;2022-08-19T01:43:09;32.03;;;15.63;;
2023;SDS011;1016;48.770;9.154;2022-08-19T01:45:35;29.07;;;14.90;;
2023;SDS011;1016;48.770;9.154;2022-08-19T01:48:01;29.67;;;15.70;;
2023;SDS011;1016;48.770;9.154;2022-08-19T01:50:28;28.30;;;14.10;;
2023;SDS011;1016;48.770;9.154;2022-08-19T01:52:57;28.97;;;15.60;;
2023;SDS011;1016;48.770;9.154;2022-08-19T01:55:24;30.03;;;15.33;;
2023;SDS011;1016;48.770;9.154;2022-08-19T01:57:52;29.30;;;14.63;;
2023;SDS011;1016;48.770;9.154;2022-08-19T02:00:22;30.20;;;16.07;;
2023;SDS011;1016;48.770;9.154;2022-08-19T02:02:50;32.70;;;15.70;;
2023;SDS011;1016;48.770;9.154;2022-08-19T02:05:16;31.77;;;15.70;;
2023;SDS011;1016;48.770;9.154;2022-08-19T02:07:43;29.17;;;15.17;;
2023;SDS011;1016;48.770;9.154;2022-08-19T02:10:11;31.23;;;16.57;;
2023;SDS011;1016;48.770;9.154;2022-08-19T02:12:39;31.20;;;16.37;;
2023;SDS011;1016;48.770;9.154;2022-08-19T02:15:05;30.20;;;16.70;;
2023;SDS011;1016;48.770;9.154;2022-08-19T02:17:32;29.17;;;15.83;;
2023;SDS011;1016;48.770;9.154;2022-08-19T02:19:58;31.17;;;16.13;;
2023;SDS011;1016;48.770;9.154;2022-08-19T02:22:23;30.60;;;16.40;;
2023;SDS011;1016;48.770;9.154;2022-08-19T02:24:50;32.27;;;16.50;;
2023;SDS011;1016;48.770;9.154;2022-08-19T02:27:17;33.73;;;17.17;;
2023;SDS011;1016;48.770;9.154;2022-08-19T02:29:43;30.80;;;17.00;;
2023;SDS011;1016;48.770;9.154;2022-08-19T02:32:11;32.03;;;17.83;;
2023;SDS011;1016;48.770;9.154;2022-08-19T02:34:36;32.13;;;17.67;;
2023;SDS011;1016;48.770;9.154;2022-08-19T02:37:02;32.00;;;17.97;;
2023;SDS011;1016;48.770;9.154;2022-08-19T02:39:27;31.77;;;17.27;;
2023;SDS011;1016;48.770;9.154;2022-08-19T02:41:53;31.90;;;17.30;;
2023;SDS011;1016;48.770;9.154;2022-08-19T02:44:18;37.03;;;18.30;;
2023;SDS011;1016;48.770;9.154;2022-08-19T02:46:47;32.30;;;18.40;;
2023;SDS011;1016;48.770;9.154;2022-08-19T02:49:14;31.07;;;17.30;;
2023;SDS011;1016;48.770;9.154;2022-08-19T02:51:41;32.60;;;18.10;;
2023;SDS011;1016;48.770;9.154;2022-08-19T02:54:09;34.13;;;18.10;;
2023;SDS011;1016;48.770;9.154;2022-08-19T02:56:36;33.53;;;18.50;;
2023;SDS011;1016;48.770;9.154;2022-08-19T02:59:03;30.77;;;17.70;;
2023;SDS011;1016;48.770;9.154;2022-08-19T03:01:35;39.40;;;18.97;;
2023;SDS011;1016;48.770;9.154;2022-08-19T03:04:02;33.93;;;19.00;;
2023;SDS011;1016;48.770;9.154;2022-08-19T03:06:29;33.37;;;18.70;;
2023;SDS011;1016;48.770;9.154;2022-08-19T03:08:55;33.80;;;18.57;;
2023;SDS011;1016;48.770;9.154;2022-08-19T03:11:23;33.30;;;19.07;;
2023;SDS011;1016;48.770;9.154;2022-08-19T03:13:51;38.93;;;20.57;;
2023;SDS011;1016;48.770;9.154;2022-08-19T03:16:18;32.30;;;18.80;;
2023;SDS011;1016;48.770;9.154;2022-08-19T03:18:45;35.07;;;19.23;;
2023;SDS011;1016;48.770;9.154;2022-08-19T03:21:22;35.93;;;19.63;;
2023;SDS011;1016;48.770;9.154;2022-08-19T03:23:49;35.70;;;20.60;;
2023;SDS011;1016;48.770;9.154;2022-08-19T03:26:15;35.13;;;19.47;;
2023;SDS011;1016;48.770;9.154;2022-08-19T03:28:42;36.70;;;21.53;;
2023;SDS011;1016;48.770;9.154;2022-08-19T03:31:12;35.97;;;20.73;;
2023;SDS011;1016;48.770;9.154;2022-08-19T03:33:39;34.80;;;19.90;;
2023;SDS011;1016;48.770;9.154;2022-08-19T03:38:45;36.63;;;20.57;;
2023;SDS011;1016;48.770;9.154;2022-08-19T03:41:14;34.70;;;20.60;;
2023;SDS011;1016;48.770;9.154;2022-08-19T03:43:43;38.77;;;21.73;;
2023;SDS011;1016;48.770;9.154;2022-08-19T03:46:18;37.07;;;22.10;;
2023;SDS011;1016;48.770;9.154;2022-08-19T03:48:47;38.10;;;21.00;;
2023;SDS011;1016;48.770;9.154;2022-08-19T03:51:18;36.03;;;21.63;;
2023;SDS011;1016;48.770;9.154;2022-08-19T03:53:46;37.50;;;21.30;;
2023;SDS011;1016;48.770;9.154;2022-08-19T03:56:13;37.27;;;21.17;;
2023;SDS011;1016;48.770;9.154;2022-08-19T03:58:39;37.63;;;22.67;;
2023;SDS011;1016;48.770;9.154;2022-08-19T04:01:13;39.20;;;24.07;;
2023;SDS011;1016;48.770;9.154;2022-08-19T04:03:40;36.93;;;21.63;;
2023;SDS011;1016;48.770;9.154;2022-08-19T04:06:12;34.70;;;21.07;;
2023;SDS011;1016;48.770;9.154;2022-08-19T04:08:40;36.40;;;22.60;;
2023;SDS011;1016;48.770;9.154;2022-08-19T04:11:09;36.83;;;22.27;;
2023;SDS011;1016;48.770;9.154;2022-08-19T04:13:36;39.53;;;24.20;;
2023;SDS011;1016;48.770;9.154;2022-08-19T04:16:03;34.40;;;21.07;;
2023;SDS011;1016;48.770;9.154;2022-08-19T04:18:30;35.13;;;21.90;;
2023;SDS011;1016;48.770;9.154;2022-08-19T04:20:56;40.30;;;23.90;;
2023;SDS011;1016;48.770;9.154;2022-08-19T04:23:22;35.50;;;22.30;;
2023;SDS011;1016;48.770;9.154;2022-08-19T04:25:47;41.13;;;22.67;;
2023;SDS011;1016;48.770;9.154;2022-08-19T04:28:13;37.17;;;23.43;;
2023;SDS011;1016;48.770;9.154;2022-08-19T04:30:43;39.33;;;24.83;;
2023;SDS011;1016;48.770;9.154;2022-08-19T04:33:11;36.57;;;21.70;;
2023;SDS011;1016;48.770;9.154;2022-08-19T04:35:39;37.90;;;22.40;;
2023;SDS011;1016;48.770;9.154;2022-08-19T04:38:06;39.20;;;23.23;;
2023;SDS011;1016;48.770;9.154;2022-08-19T04:40:32;40.87;;;24.83;;
2023;SDS011;1016;48.770;9.154;2022-08-19T04:43:17;40.60;;;23.63;;
2023;SDS011;1016;48.770;9.154;2022-08-19T04:45:43;37.37;;;23.50;;
2023;SDS011;1016;48.770;9.154;2022-08-19T04:48:10;38.87;;;23.23;;
2023;SDS011;1016;48.770;9.154;2022-08-19T04:50:38;36.37;;;22.67;;
2023;SDS011;1016;48.770;9.154;2022-08-19T04:53:06;37.23;;;23.07;;
2023;SDS011;1016;48.770;9.154;2022-08-19T04:55:31;38.67;;;24.43;;
2023;SDS011;1016;48.770;9.154;2022-08-19T04:57:57;38.40;;;23.23;;
2023;SDS011;1016;48.770;9.154;2022-08-19T05:00:22;40.97;;;22.87;;
2023;SDS011;1016;48.770;9.154;2022-08-19T05:02:48;42.57;;;22.83;;
2023;SDS011;1016;48.770;9.154;2022-08-19T05:05:14;36.73;;;22.77;;
2023;SDS011;1016;48.770;9.154;2022-08-19T05:07:39;38.87;;;23.67;;
2023;SDS011;1016;48.770;9.154;2022-08-19T05:10:06;39.27;;;23.13;;
2023;SDS011;1016;48.770;9.154;2022-08-19T05:12:32;36.43;;;22.67;;
2023;SDS011;1016;48.770;9.154;2022-08-19T05:14:58;40.57;;;23.63;;
2023;SDS011;1016;48.770;9.154;2022-08-19T05:17:26;38.50;;;23.87;;
2023;SDS011;1016;48.770;9.154;2022-08-19T05:19:52;38.20;;;23.43;;
2023;SDS011;1016;48.770;9.154;2022-08-19T05:22:36;39.30;;;23.57;;
2023;SDS011;1016;48.770;9.154;2022-08-19T05:25:09;39.53;;;23.20;;
2023;SDS011;1016;48.770;9.154;2022-08-19T05:27:38;36.60;;;22.13;;
2023;SDS011;1016;48.770;9.154;2022-08-19T05:30:04;37.53;;;22.97;;
2023;SDS011;1016;48.770;9.154;2022-08-19T05:32:30;38.10;;;22.60;;
2023;SDS011;1016;48.770;9.154;2022-08-19T05:34:56;38.40;;;23.13;;
2023;SDS011;1016;48.770;9.154;2022-08-19T05:37:21;36.60;;;23.03;;
2023;SDS011;1016;48.770;9.154;2022-08-19T05:39:47;36.97;;;22.90;;
2023;SDS011;1016;48.770;9.154;2022-08-19T05:42:14;37.37;;;22.43;;
2023;SDS011;1016;48.770;9.154;2022-08-19T05:44:41;39.30;;;23.43;;
2023;SDS011;1016;48.770;9.154;2022-08-19T05:47:09;37.10;;;23.20;;
2023;SDS011;1016;48.770;9.154;2022-08-19T05:49:36;38.80;;;24.10;;
2023;SDS011;1016;48.770;9.154;2022-08-19T05:52:06;38.03;;;22.57;;
2023;SDS011;1016;48.770;9.154;2022-08-19T05:54:36;35.93;;;22.50;;
2023;SDS011;1016;48.770;9.154;2022-08-19T05:57:04;39.60;;;23.13;;
2023;SDS011;1016;48.770;9.154;2022-08-19T05:59:30;35.33;;;22.20;;
2023;SDS011;1016;48.770;9.154;2022-08-19T06:01:56;38.43;;;22.37;;
2023;SDS011;1016;48.770;9.154;2022-08-19T06:04:22;38.53;;;22.80;;
2023;SDS011;1016;48.770;9.154;2022-08-19T06:06:49;39.33;;;22.50;;
2023;SDS011;1016;48.770;9.154;2022-08-19T06:09:16;37.10;;;23.20;;
2023;SDS011;1016;48.770;9.154;2022-08-19T06:11:43;34.50;;;21.40;;
2023;SDS011;1016;48.770;9.154;2022-08-19T06:14:14;36.20;;;21.60;;
2023;SDS011;1016;48.770;9.154;2022-08-19T06:16:43;36.07;;;21.40;;
2023;SDS011;1016;48.770;9.154;2022-08-19T06:19:11;37.43;;;23.17;;
2023;SDS011;1016;48.770;9.154;2022-08-19T06:21:40;36.07;;;22.17;;
2023;SDS011;1016;48.770;9.154;2022-08-19T06:24:08;36.30;;;22.00;;
2023;SDS011;1016;48.770;9.154;2022-08-19T06:26:36;35.87;;;21.47;;
2023;SDS011;1016;48.770;9.154;2022-08-19T06:29:04;35.33;;;21.33;;
2023;SDS011;1016;48.770;9.154;2022-08-19T06:31:31;37.70;;;22.07;;
2023;SDS011;1016;48.770;9.154;2022-08-19T06:33:58;38.93;;;22.80;;
2023;SDS011;1016;48.770;9.154;2022-08-19T06:36:30;37.13;;;22.17;;
2023;SDS011;1016;48.770;9.154;2022-08-19T06:39:03;40.37;;;22.50;;
2023;SDS011;1016;48.770;9.154;2022-08-19T06:41:30;36.93;;;21.97;;
2023;SDS011;1016;48.770;9.154;2022-08-19T06:43:58;37.00;;;21.43;;
2023;SDS011;1016;48.770;9.154;2022-08-19T06:46:24;37.30;;;23.43;;
2023;SDS011;1016;48.770;9.154;2022-08-19T06:48:50;38.20;;;22.70;;
2023;SDS011;1016;48.770;9.154;2022-08-19T06:51:18;35.67;;;22.17;;
2023;SDS011;1016;48.770;9.154;2022-08-19T06:53:45;38.07;;;23.27;;
2023;SDS011;1016;48.770;9.154;2022-08-19T06:56:12;36.30;;;23.50;;
2023;SDS011;1016;48.770;9.154;2022-08-19T06:58:39;37.30;;;22.07;;
2023;SDS011;1016;48.770;9.154;2022-08-19T07:01:05;36.00;;;22.73;;
2023;SDS011;1016;48.770;9.154;2022-08-19T07:03:32;37.13;;;22.40;;
2023;SDS011;1016;48.770;9.154;2022-08-19T07:06:06;38.67;;;24.57;;
2023;SDS011;1016;48.770;9.154;2022-08-19T07:08:34;35.20;;;23.00;;
2023;SDS011;1016;48.770;9.154;2022-08-19T07:11:01;39.50;;;22.77;;
2023;SDS011;1016;48.770;9.154;2022-08-19T07:13:31;38.03;;;25.17;;
2023;SDS011;1016;48.770;9.154;2022-08-19T07:16:07;37.67;;;23.50;;
2023;SDS011;1016;48.770;9.154;2022-08-19T07:18:34;38.93;;;23.73;;
2023;SDS011;1016;48.770;9.154;2022-08-19T07:21:04;37.67;;;24.23;;
2023;SDS011;1016;48.770;9.154;2022-08-19T07:23:31;37.77;;;23.33;;
2023;SDS011;1016;48.770;9.154;2022-08-19T07:25:57;34.00;;;22.23;;
2023;SDS011;1016;48.770;9.154;2022-08-19T07:28:23;38.83;;;21.60;;
2023;SDS011;1016;48.770;9.154;2022-08-19T07:30:49;39.10;;;23.70;;
2023;SDS011;1016;48.770;9.154;2022-08-19T07:33:15;37.70;;;21.87;;
2023;SDS011;1016;48.770;9.154;2022-08-19T07:35:43;35.63;;;23.03;;
2023;SDS011;1016;48.770;9.154;2022-08-19T07:38:08;35.77;;;22.23;;
2023;SDS011;1016;48.770;9.154;2022-08-19T07:40:35;35.60;;;21.57;;
2023;SDS011;1016;48.770;9.154;2022-08-19T07:43:00;37.70;;;21.57;;
2023;SDS011;1016;48.770;9.154;2022-08-19T07:45:26;35.87;;;22.13;;
2023;SDS011;1016;48.770;9.154;2022-08-19T07:47:53;34.37;;;20.37;;
2023;SDS011;1016;48.770;9.154;2022-08-19T07:50:19;35.80;;;21.47;;
2023;SDS011;1016;48.770;9.154;2022-08-19T07:52:46;34.90;;;20.83;;
2023;SDS011;1016;48.770;9.154;2022-08-19T07:55:14;32.97;;;20.77;;
2023;SDS011;1016;48.770;9.154;2022-08-19T07:57:41;36.00;;;20.80;;
2023;SDS011;1016;48.770;9.154;2022-08-19T08:00:07;36.37;;;21.13;;
2023;SDS011;1016;48.770;9.154;2022-08-19T08:02:33;38.87;;;21.80;;
2023;SDS011;1016;48.770;9.154;2022-08-19T08:04:58;33.80;;;20.93;;
2023;SDS011;1016;48.770;9.154;2022-08-19T08:07:43;33.33;;;21.10;;
2023;SDS011;1016;48.770;9.154;2022-08-19T08:10:27;34.70;;;20.00;;
2023;SDS011;1016;48.770;9.154;2022-08-19T08:12:52;33.80;;;19.13;;
2023;SDS011;1016;48.770;9.154;2022-08-19T08:15:20;35.43;;;20.80;;
2023;SDS011;1016;48.770;9.154;2022-08-19T08:17:45;34.20;;;20.30;;
2023;SDS011;1016;48.770;9.154;2022-08-19T08:20:12;42.33;;;19.40;;
2023;SDS011;1016;48.770;9.154;2022-08-19T08:22:42;33.20;;;19.40;;
2023;SDS011;1016;48.770;9.154;2022-08-19T08:25:27;37.70;;;20.43;;
2023;SDS011;1016;48.770;9.154;2022-08-19T08:27:56;33.17;;;19.13;;
2023;SDS011;1016;48.770;9.154;2022-08-19T08:30:24;33.90;;;20.13;;
2023;SDS011;1016;48.770;9.154;2022-08-19T08:32:51;34.00;;;19.90;;
2023;SDS011;1016;48.770;9.154;2022-08-19T08:35:18;32.40;;;20.67;;
2023;SDS011;1016;48.770;9.154;2022-08-19T08:37:46;33.43;;;20.77;;
2023;SDS011;1016;48.770;9.154;2022-08-19T08:43:00;34.93;;;19.50;;
2023;SDS011;1016;48.770;9.154;2022-08-19T08:45:32;35.13;;;19.33;;
2023;SDS011;1016;48.770;9.154;2022-08-19T08:48:02;31.77;;;20.30;;
2023;SDS011;1016;48.770;9.154;2022-08-19T08:50:38;35.27;;;19.07;;
2023;SDS011;1016;48.770;9.154;2022-08-19T08:53:07;32.67;;;19.73;;
2023;SDS011;1016;48.770;9.154;2022-08-19T08:55:35;32.30;;;19.60;;
2023;SDS011;1016;48.770;9.154;2022-08-19T08:58:03;32.27;;;19.60;;
2023;SDS011;1016;48.770;9.154;2022-08-19T09:00:33;32.73;;;19.80;;
2023;SDS011;1016;48.770;9.154;2022-08-19T09:03:03;35.63;;;20.53;;
2023;SDS011;1016;48.770;9.154;2022-08-19T09:05:59;36.80;;;21.13;;
2023;SDS011;1016;48.770;9.154;2022-08-19T09:08:49;35.83;;;20.83;;
2023;SDS011;1016;48.770;9.154;2022-08-19T09:11:49;33.73;;;21.30;;
2023;SDS011;1016;48.770;9.154;2022-08-19T09:17:00;32.40;;;20.13;;
2023;SDS011;1016;48.770;9.154;2022-08-19T09:19:28;32.83;;;20.03;;
2023;SDS011;1016;48.770;9.154;2022-08-19T09:21:54;34.53;;;18.60;;
2023;SDS011;1016;48.770;9.154;2022-08-19T09:24:19;32.23;;;19.37;;
2023;SDS011;1016;48.770;9.154;2022-08-19T09:26:45;31.63;;;18.37;;
2023;SDS011;1016;48.770;9.154;2022-08-19T09:29:11;32.10;;;18.90;;
2023;SDS011;1016;48.770;9.154;2022-08-19T09:31:36;33.37;;;19.27;;
2023;SDS011;1016;48.770;9.154;2022-08-19T09:34:03;33.50;;;19.43;;
2023;SDS011;1016;48.770;9.154;2022-08-19T09:36:29;31.80;;;18.97;;
2023;SDS011;1016;48.770;9.154;2022-08-19T09:39:01;36.00;;;17.40;;
2023;SDS011;1016;48.770;9.154;2022-08-19T09:41:29;33.83;;;19.07;;
2023;SDS011;1016;48.770;9.154;2022-08-19T09:43:55;31.97;;;18.07;;
2023;SDS011;1016;48.770;9.154;2022-08-19T09:46:26;30.90;;;17.40;;
2023;SDS011;1016;48.770;9.154;2022-08-19T09:48:53;30.50;;;16.77;;
2023;SDS011;1016;48.770;9.154;2022-08-19T09:51:23;30.50;;;16.53;;
2023;SDS011;1016;48.770;9.154;2022-08-19T09:53:51;32.67;;;16.20;;
2023;SDS011;1016;48.770;9.154;2022-08-19T09:56:19;32.00;;;17.87;;
2023;SDS011;1016;48.770;9.154;2022-08-19T09:58:46;29.73;;;16.77;;
2023;SDS011;1016;48.770;9.154;2022-08-19T10:01:16;33.17;;;16.07;;
2023;SDS011;1016;48.770;9.154;2022-08-19T10:03:46;32.37;;;15.83;;
2023;SDS011;1016;48.770;9.154;2022-08-19T10:06:13;28.53;;;15.13;;
2023;SDS011;1016;48.770;9.154;2022-08-19T10:08:39;29.10;;;15.00;;
2023;SDS011;1016;48.770;9.154;2022-08-19T10:11:05;29.10;;;15.63;;
2023;SDS011;1016;48.770;9.154;2022-08-19T10:13:31;31.20;;;15.43;;
2023;SDS011;1016;48.770;9.154;2022-08-19T10:16:03;28.53;;;14.13;;
2023;SDS011;1016;48.770;9.154;2022-08-19T10:18:31;29.97;;;15.53;;
2023;SDS011;1016;48.770;9.154;2022-08-19T10:21:32;30.83;;;15.30;;
2023;SDS011;1016;48.770;9.154;2022-08-19T10:23:55;27.50;;;14.50;;
2023;SDS011;1016;48.770;9.154;2022-08-19T10:26:27;29.87;;;14.87;;
2023;SDS011;1016;48.770;9.154;2022-08-19T10:28:55;29.47;;;15.07;;
2023;SDS011;1016;48.770;9.154;2022-08-19T10:31:23;27.93;;;14.83;;
2023;SDS011;1016;48.770;9.154;2022-08-19T10:33:51;30.40;;;14.90;;
2023;SDS011;1016;48.770;9.154;2022-08-19T10:36:22;29.60;;;13.40;;
2023;SDS011;1016;48.770;9.154;2022-08-19T10:38:54;30.00;;;13.37;;
2023;SDS011;1016;48.770;9.154;2022-08-19T10:41:24;26.73;;;12.83;;
2023;SDS011;1016;48.770;9.154;2022-08-19T10:43:52;29.80;;;14.00;;
2023;SDS011;1016;48.770;9.154;2022-08-19T10:46:20;27.80;;;13.90;;
2023;SDS011;1016;48.770;9.154;2022-08-19T10:48:47;26.43;;;12.60;;
2023;SDS011;1016;48.770;9.154;2022-08-19T10:51:12;29.80;;;11.70;;
2023;SDS011;1016;48.770;9.154;2022-08-19T10:53:57;27.20;;;11.60;;
2023;SDS011;1016;48.770;9.154;2022-08-19T10:56:24;28.43;;;13.37;;
2023;SDS011;1016;48.770;9.154;2022-08-19T10:59:09;28.00;;;13.37;;
2023;SDS011;1016;48.770;9.154;2022-08-19T11:01:38;28.17;;;11.40;;
2023;SDS011;1016;48.770;9.154;2022-08-19T11:04:04;25.50;;;10.33;;
2023;SDS011;1016;48.770;9.154;2022-08-19T11:06:33;33.23;;;11.40;;
2023;SDS011;1016;48.770;9.154;2022-08-19T11:08:59;27.27;;;12.00;;
2023;SDS011;1016;48.770;9.154;2022-08-19T11:11:25;25.40;;;11.50;;
2023;SDS011;1016;48.770;9.154;2022-08-19T11:13:51;28.53;;;11.57;;
2023;SDS011;1016;48.770;9.154;2022-08-19T11:16:22;30.33;;;12.00;;
2023;SDS011;1016;48.770;9.154;2022-08-19T11:18:50;25.60;;;10.60;;
2023;SDS011;1016;48.770;9.154;2022-08-19T11:21:21;25.53;;;10.40;;
2023;SDS011;1016;48.770;9.154;2022-08-19T11:23:53;25.83;;;11.50;;
2023;SDS011;1016;48.770;9.154;2022-08-19T11:26:20;24.97;;;10.67;;
2023;SDS011;1016;48.770;9.154;2022-08-19T11:28:46;24.50;;;10.67;;
2023;SDS011;1016;48.770;9.154;2022-08-19T11:31:13;28.33;;;13.10;;
2023;SDS011;1016;48.770;9.154;2022-08-19T11:33:43;26.40;;;12.00;;
2023;SDS011;1016;48.770;9.154;2022-08-19T11:36:10;26.20;;;11.53;;
2023;SDS011;1016;48.770;9.154;2022-08-19T11:38:37;29.77;;;11.33;;
2023;SDS011;1016;48.770;9.154;2022-08-19T11:41:06;23.80;;;10.33;;
2023;SDS011;1016;48.770;9.154;2022-08-19T11:43:33;26.00;;;10.80;;
2023;SDS011;1016;48.770;9.154;2022-08-19T11:45:59;25.00;;;10.13;;
2023;SDS011;1016;48.770;9.154;2022-08-19T11:48:30;25.37;;;10.53;;
2023;SDS011;1016;48.770;9.154;2022-08-19T11:50:56;23.00;;;9.80;;
2023;SDS011;1016;48.770;9.154;2022-08-19T11:53:21;24.37;;;9.40;;
2023;SDS011;1016;48.770;9.154;2022-08-19T11:55:48;27.50;;;10.90;;
2023;SDS011;1016;48.770;9.154;2022-08-19T11:58:15;24.77;;;9.97;;
2023;SDS011;1016;48.770;9.154;2022-08-19T12:00:42;24.23;;;10.23;;
2023;SDS011;1016;48.770;9.154;2022-08-19T12:03:10;24.67;;;10.73;;
2023;SDS011;1016;48.770;9.154;2022-08-19T12:05:37;25.10;;;9.43;;
2023;SDS011;1016;48.770;9.154;2022-08-19T12:08:03;23.13;;;9.33;;
2023;SDS011;1016;48.770;9.154;2022-08-19T12:10:29;23.93;;;10.40;;
2023;SDS011;1016;48.770;9.154;2022-08-19T12:12:55;24.90;;;10.37;;
2023;SDS011;1016;48.770;9.154;2022-08-19T12:15:20;24.80;;;10.50;;
2023;SDS011;1016;48.770;9.154;2022-08-19T12:17:46;23.33;;;9.83;;
2023;SDS011;1016;48.770;9.154;2022-08-19T12:20:12;23.60;;;10.10;;
2023;SDS011;1016;48.770;9.154;2022-08-19T12:22:40;25.10;;;10.37;;
2023;SDS011;1016;48.770;9.154;2022-08-19T12:25:06;24.17;;;10.00;;
2023;SDS011;1016;48.770;9.154;2022-08-19T12:27:33;25.07;;;10.30;;
2023;SDS011;1016;48.770;9.154;2022-08-19T12:30:00;26.53;;;10.40;;
2023;SDS011;1016;48.770;9.154;2022-08-19T12:32:27;23.67;;;9.00;;
2023;SDS011;1016;48.770;9.154;2022-08-19T12:34:53;29.10;;;10.30;;
2023;SDS011;1016;48.770;9.154;2022-08-19T12:37:19;25.00;;;10.73;;
2023;SDS011;1016;48.770;9.154;2022-08-19T12:39:44;24.80;;;11.30;;
2023;SDS011;1016;48.770;9.154;2022-08-19T12:42:13;24.97;;;10.60;;
2023;SDS011;1016;48.770;9.154;2022-08-19T12:44:40;24.80;;;10.47;;
2023;SDS011;1016;48.770;9.154;2022-08-19T12:47:07;23.40;;;9.80;;
2023;SDS011;1016;48.770;9.154;2022-08-19T12:49:34;24.53;;;10.00;;
2023;SDS011;1016;48.770;9.154;2022-08-19T12:52:02;24.23;;;9.83;;
2023;SDS011;1016;48.770;9.154;2022-08-19T12:54:29;89.47;;;15.60;;
2023;SDS011;1016;48.770;9.154;2022-08-19T12:56:55;250.73;;;26.33;;
2023;SDS011;1016;48.770;9.154;2022-08-19T12:59:24;47.73;;;13.40;;
2023;SDS011;1016;48.770;9.154;2022-08-19T13:01:50;42.30;;;13.30;;
2023;SDS011;1016;48.770;9.154;2022-08-19T13:04:16;29.13;;;11.60;;
2023;SDS011;1016;48.770;9.154;2022-08-19T13:06:42;24.20;;;10.93;;
2023;SDS011;1016;48.770;9.154;2022-08-19T13:09:08;27.27;;;11.30;;
2023;SDS011;1016;48.770;9.154;2022-08-19T13:11:34;27.83;;;11.30;;
2023;SDS011;1016;48.770;9.154;2022-08-19T13:14:01;26.40;;;10.87;;
2023;SDS011;1016;48.770;9.154;2022-08-19T13:16:28;28.00;;;11.73;;
2023;SDS011;1016;48.770;9.154;2022-08-19T13:18:55;26.57;;;12.10;;
2023;SDS011;1016;48.770;9.154;2022-08-19T13:21:23;25.47;;;10.30;;
2023;SDS011;1016;48.770;9.154;2022-08-19T13:23:50;25.97;;;12.13;;
2023;SDS011;1016;48.770;9.154;2022-08-19T13:26:17;32.03;;;13.70;;
2023;SDS011;1016;48.770;9.154;2022-08-19T13:28:43;28.80;;;15.10;;
2023;SDS011;1016;48.770;9.154;2022-08-19T13:31:29;30.37;;;17.23;;
2023;SDS011;1016;48.770;9.154;2022-08-19T13:34:18;34.60;;;16.73;;
2023;SDS011;1016;48.770;9.154;2022-08-19T13:36:51;30.93;;;16.47;;
2023;SDS011;1016;48.770;9.154;2022-08-19T13:39:17;34.20;;;19.00;;
2023;SDS011;1016;48.770;9.154;2022-08-19T13:41:45;35.23;;;20.83;;
2023;SDS011;1016;48.770;9.154;2022-08-19T13:44:15;34.23;;;20.50;;
2023;SDS011;1016;48.770;9.154;2022-08-19T13:46:43;34.93;;;21.17;;
2023;SDS011;1016;48.770;9.154;2022-08-19T13:49:12;33.87;;;20.93;;
2023;SDS011;1016;48.770;9.154;2022-08-19T13:51:40;35.07;;;22.10;;
2023;SDS011;1016;48.770;9.154;2022-08-19T13:54:07;35.40;;;21.50;;
2023;SDS011;1016;48.770;9.154;2022-08-19T13:56:34;35.43;;;21.10;;
2023;SDS011;1016;48.770;9.154;2022-08-19T13:59:00;33.77;;;21.20;;
2023;SDS011;1016;48.770;9.154;2022-08-19T14:01:26;35.53;;;22.77;;
2023;SDS011;1016;48.770;9.154;2022-08-19T14:03:52;35.57;;;22.97;;
2023;SDS011;1016;48.770;9.154;2022-08-19T14:06:18;33.67;;;21.63;;
2023;SDS011;1016;48.770;9.154;2022-08-19T14:08:46;35.90;;;22.70;;
2023;SDS011;1016;48.770;9.154;2022-08-19T14:11:11;36.10;;;23.70;;
2023;SDS011;1016;48.770;9.154;2022-08-19T14:13:37;36.13;;;23.67;;
2023;SDS011;1016;48.770;9.154;2022-08-19T14:16:06;34.47;;;22.30;;
2023;SDS011;1016;48.770;9.154;2022-08-19T14:18:36;36.73;;;24.43;;
2023;SDS011;1016;48.770;9.154;2022-08-19T14:21:03;37.33;;;23.10;;
2023;SDS011;1016;48.770;9.154;2022-08-19T14:23:29;39.10;;;24.27;;
2023;SDS011;1016;48.770;9.154;2022-08-19T14:26:09;38.40;;;22.90;;
2023;SDS011;1016;48.770;9.154;2022-08-19T14:28:37;33.07;;;22.03;;
2023;SDS011;1016;48.770;9.154;2022-08-19T14:31:05;33.43;;;20.70;;
2023;SDS011;1016;48.770;9.154;2022-08-19T14:33:31;33.77;;;20.50;;
2023;SDS011;1016;48.770;9.154;2022-08-19T14:35:57;32.07;;;18.40;;
2023;SDS011;1016;48.770;9.154;2022-08-19T14:38:23;31.30;;;19.00;;
2023;SDS011;1016;48.770;9.154;2022-08-19T14:40:48;32.87;;;20.10;;
2023;SDS011;1016;48.770;9.154;2022-08-19T14:43:14;36.70;;;20.90;;
2023;SDS011;1016;48.770;9.154;2022-08-19T14:45:39;33.10;;;20.40;;
2023;SDS011;1016;48.770;9.154;2022-08-19T14:48:06;33.63;;;21.20;;
2023;SDS011;1016;48.770;9.154;2022-08-19T14:50:33;32.80;;;18.90;;
2023;SDS011;1016;48.770;9.154;2022-08-19T14:53:01;31.63;;;18.53;;
2023;SDS011;1016;48.770;9.154;2022-08-19T14:55:32;31.13;;;17.70;;
2023;SDS011;1016;48.770;9.154;2022-08-19T14:57:58;30.30;;;18.40;;
2023;SDS011;1016;48.770;9.154;2022-08-19T15:00:24;32.20;;;19.03;;
2023;SDS011;1016;48.770;9.154;2022-08-19T15:02:50;32.30;;;18.90;;